Time;durP1;ratioP1;P1;durP2;ratioP2;P2;SDS_P1;SDS_P2;PMS_P1;PMS_P2;Temp;Humidity;BMP_temperature;BMP_pressure;BME280_temperature;BME280_humidity;BME280_pressure;Samples;Min_cycle;Max_cycle;Signal;HPM_P1;HPM_P2
2021/12/14 00:02:13;;;;;;;19.27;12.23;;;8.90;99.90;;;;;;5114344;28;20469;-52
2021/12/14 00:04:39;;;;;;;16.40;12.65;;;8.90;99.90;;;;;;5114480;28;20435;-52
2021/12/14 00:07:10;;;;;;;18.75;13.43;;;8.90;99.90;;;;;;5114426;28;20040;-53
2021/12/14 00:09:39;;;;;;;16.90;13.15;;;8.90;99.90;;;;;;5114369;28;20051;-50
2021/12/14 00:17:24;;;;;;;19.30;13.35;;;8.90;99.90;;;;;;5114229;28;20047;-49
2021/12/14 00:19:53;;;;;;;16.35;12.98;;;8.80;99.90;;;;;;5114082;28;20400;-52
2021/12/14 00:24:55;;;;;;;15.30;12.65;;;8.80;99.90;;;;;;5114112;28;19922;-50
2021/12/14 00:27:23;;;;;;;17.80;14.45;;;8.80;99.90;;;;;;5114054;28;20039;-50
2021/12/14 00:29:53;;;;;;;18.90;12.98;;;8.70;99.90;;;;;;5113990;28;20043;-53
2021/12/14 00:32:24;;;;;;;18.13;13.27;;;8.70;99.90;;;;;;5113954;27;20439;-52
2021/12/14 00:34:53;;;;;;;18.67;13.60;;;8.70;99.90;;;;;;5113742;28;20058;-53
2021/12/14 00:37:45;;;;;;;17.35;12.88;;;8.70;99.90;;;;;;5113961;28;20047;-50
2021/12/14 00:40:34;;;;;;;16.13;12.35;;;8.70;99.90;;;;;;5113821;28;20039;-52
2021/12/14 00:43:00;;;;;;;16.80;12.05;;;8.80;99.90;;;;;;5113630;28;20412;-52
2021/12/14 00:45:29;;;;;;;18.90;12.68;;;8.80;99.90;;;;;;5113590;28;20031;-51
2021/12/14 00:47:56;;;;;;;18.10;13.18;;;8.80;99.90;;;;;;5113564;28;20039;-52
2021/12/14 00:50:26;;;;;;;18.55;12.75;;;8.80;99.90;;;;;;5113395;28;20070;-50
2021/12/14 00:52:51;;;;;;;16.80;12.93;;;8.80;99.90;;;;;;5113364;28;20094;-52
2021/12/14 00:55:24;;;;;;;19.65;12.77;;;8.80;99.90;;;;;;5113446;28;20039;-53
2021/12/14 00:57:50;;;;;;;19.02;11.45;;;8.80;99.90;;;;;;5113020;28;20043;-51
2021/12/14 01:00:19;;;;;;;22.85;12.27;;;8.90;99.90;;;;;;5113161;28;20039;-53
2021/12/14 01:02:45;;;;;;;16.73;12.98;;;8.90;99.90;;;;;;5113279;28;20035;-51
2021/12/14 01:05:18;;;;;;;17.13;11.95;;;8.90;99.90;;;;;;5113336;28;20055;-51
2021/12/14 01:07:43;;;;;;;14.88;12.13;;;8.90;99.90;;;;;;5112990;28;20047;-52
2021/12/14 01:10:32;;;;;;;17.88;13.18;;;8.90;99.90;;;;;;5113342;28;20055;-53
2021/12/14 01:13:06;;;;;;;16.77;12.70;;;8.90;99.90;;;;;;5113327;28;20053;-53
2021/12/14 01:15:52;;;;;;;15.23;12.27;;;8.90;99.90;;;;;;5113107;28;20048;-51
2021/12/14 01:18:47;;;;;;;17.98;12.93;;;8.80;99.90;;;;;;5112967;28;20082;-53
2021/12/14 01:27:08;;;;;;;19.38;13.82;;;8.80;99.90;;;;;;5112808;28;20408;-51
2021/12/14 01:29:34;;;;;;;17.67;13.07;;;8.80;99.90;;;;;;5112262;28;20451;-51
2021/12/14 01:32:02;;;;;;;19.42;12.98;;;8.80;99.90;;;;;;5112938;28;20131;-51
2021/12/14 01:34:31;;;;;;;17.77;12.77;;;8.80;99.90;;;;;;5112815;28;20040;-51
2021/12/14 01:37:01;;;;;;;18.38;14.27;;;8.80;99.90;;;;;;5112690;28;20088;-51
2021/12/14 01:42:22;;;;;;;15.88;13.85;;;8.80;99.90;;;;;;5112845;28;20130;-51
2021/12/14 01:44:52;;;;;;;;;;;8.80;99.90;;;;;;5113470;28;20046;-50
2021/12/14 01:47:52;;;;;;;17.83;13.63;;;8.70;99.90;;;;;;5112782;28;19919;-52
2021/12/14 01:50:31;;;;;;;22.75;14.60;;;8.70;99.90;;;;;;5069752;28;20052;-52
2021/12/14 01:52:58;;;;;;;20.73;13.97;;;8.70;99.90;;;;;;5069988;28;20044;-51
2021/12/14 01:55:30;;;;;;;24.25;14.15;;;8.70;99.90;;;;;;5070006;28;20879;-51
2021/12/14 01:57:58;;;;;;;18.65;15.10;;;8.70;99.90;;;;;;5069842;28;20420;-51
2021/12/14 02:00:47;;;;;;;20.92;15.25;;;8.70;99.90;;;;;;5069718;28;20048;-53
2021/12/14 02:03:14;;;;;;;21.83;15.75;;;8.70;99.90;;;;;;5069734;28;20488;-51
2021/12/14 02:05:44;;;;;;;19.15;15.02;;;8.70;99.90;;;;;;5069783;28;20044;-51
2021/12/14 02:08:19;;;;;;;17.55;14.80;;;8.70;99.90;;;;;;5069581;28;20117;-53
2021/12/14 02:10:45;;;;;;;20.85;15.45;;;8.70;99.90;;;;;;5069696;28;20083;-51
2021/12/14 02:13:11;;;;;;;18.50;15.25;;;8.70;99.90;;;;;;5069595;28;20246;-51
2021/12/14 02:15:43;;;;;;;19.23;15.70;;;8.70;99.90;;;;;;5069873;28;20044;-51
2021/12/14 02:18:14;;;;;;;23.17;15.85;;;8.70;99.90;;;;;;5069703;28;20048;-51
2021/12/14 02:20:52;;;;;;;22.00;15.63;;;8.70;99.90;;;;;;5069432;28;20049;-52
2021/12/14 02:23:18;;;;;;;22.58;16.20;;;8.70;99.90;;;;;;5069899;28;20797;-50
2021/12/14 02:25:43;;;;;;;22.48;16.98;;;8.70;99.90;;;;;;5074229;28;20028;-52
2021/12/14 02:28:17;;;;;;;22.55;17.33;;;8.70;99.90;;;;;;5112415;28;20071;-51
2021/12/14 02:30:46;;;;;;;25.27;17.60;;;8.60;99.90;;;;;;5112246;28;20039;-51
2021/12/14 02:33:22;;;;;;;24.45;17.65;;;8.60;99.90;;;;;;5112296;28;20042;-51
2021/12/14 02:35:49;;;;;;;24.88;19.27;;;8.60;99.90;;;;;;5112046;28;20031;-52
2021/12/14 02:38:17;;;;;;;23.75;18.63;;;8.60;99.90;;;;;;5112265;28;20044;-50
2021/12/14 02:41:01;;;;;;;23.30;18.48;;;8.60;99.90;;;;;;5112290;28;20038;-53
2021/12/14 02:43:52;;;;;;;27.05;19.60;;;8.60;99.90;;;;;;5115147;28;20035;-52
2021/12/14 02:46:20;;;;;;;29.58;19.73;;;8.50;99.90;;;;;;5115769;28;20080;-50
2021/12/14 02:48:49;;;;;;;25.90;19.52;;;8.50;99.90;;;;;;5115917;28;20122;-49
2021/12/14 02:51:22;;;;;;;29.02;21.35;;;8.50;99.90;;;;;;5115754;28;20562;-53
2021/12/14 02:53:51;;;;;;;25.58;19.13;;;8.60;99.90;;;;;;5115922;28;20047;-51
2021/12/14 02:56:21;;;;;;;25.25;19.65;;;8.60;99.90;;;;;;5115780;28;20446;-53
2021/12/14 02:58:50;;;;;;;25.73;19.42;;;8.60;99.90;;;;;;5115383;28;20443;-48
2021/12/14 03:01:17;;;;;;;26.90;19.08;;;8.60;99.90;;;;;;5114623;28;20040;-52
2021/12/14 03:03:43;;;;;;;31.30;19.98;;;8.60;99.90;;;;;;5115609;28;20089;-52
2021/12/14 03:06:12;;;;;;;26.77;19.20;;;8.60;99.90;;;;;;5115671;27;20171;-51
2021/12/14 03:08:45;;;;;;;24.50;18.80;;;8.60;99.90;;;;;;5115327;28;20404;-50
2021/12/14 03:11:13;;;;;;;27.80;19.83;;;8.50;99.90;;;;;;5115329;28;20082;-49
2021/12/14 03:13:42;;;;;;;24.60;19.50;;;8.50;99.90;;;;;;5115310;28;20043;-53
2021/12/14 03:16:16;;;;;;;27.35;18.92;;;8.60;99.90;;;;;;5115379;28;20115;-51
2021/12/14 03:18:45;;;;;;;27.25;20.42;;;8.60;99.90;;;;;;5115355;28;20119;-50
2021/12/14 03:21:45;;;;;;;27.20;19.55;;;8.60;99.90;;;;;;5115263;28;20069;-53
2021/12/14 03:24:14;;;;;;;25.63;19.40;;;8.50;99.90;;;;;;5072435;28;20390;-49
2021/12/14 03:26:43;;;;;;;;;;;8.50;99.90;;;;;;5072891;28;20052;-52
2021/12/14 03:29:12;;;;;;;28.63;19.63;;;8.50;99.90;;;;;;5072411;28;20003;-50
2021/12/14 03:31:42;;;;;;;29.80;22.02;;;8.50;99.90;;;;;;5072021;28;20142;-53
2021/12/14 03:34:15;;;;;;;27.55;19.30;;;8.50;99.90;;;;;;5072155;28;20052;-53
2021/12/14 03:36:51;;;;;;;31.58;21.95;;;8.50;99.90;;;;;;5072131;28;20036;-50
2021/12/14 03:39:37;;;;;;;30.95;20.40;;;8.50;99.90;;;;;;5072186;28;20044;-52
2021/12/14 03:42:02;;;;;;;32.72;22.25;;;8.50;99.90;;;;;;5072139;28;20105;-50
2021/12/14 03:44:36;;;;;;;28.35;21.20;;;8.50;99.90;;;;;;5071982;28;20581;-49
2021/12/14 03:47:07;;;;;;;31.67;22.77;;;8.50;99.90;;;;;;5071870;28;20056;-52
2021/12/14 03:49:37;;;;;;;30.60;21.38;;;8.50;99.90;;;;;;5071959;28;20109;-51
2021/12/14 03:52:08;;;;;;;30.27;21.25;;;8.50;99.90;;;;;;5071790;28;20068;-52
2021/12/14 03:54:34;;;;;;;32.33;22.83;;;8.50;99.90;;;;;;5071474;28;20125;-49
2021/12/14 03:57:01;;;;;;;29.42;21.02;;;8.50;99.90;;;;;;5071781;28;20060;-51
2021/12/14 03:59:30;;;;;;;27.92;21.38;;;8.50;99.90;;;;;;5074388;28;20528;-51
2021/12/14 04:01:59;;;;;;;36.42;22.25;;;8.50;99.90;;;;;;5114206;28;20042;-49
2021/12/14 04:04:38;;;;;;;30.53;21.90;;;8.50;99.90;;;;;;5114547;28;20110;-49
2021/12/14 04:07:07;;;;;;;32.28;22.92;;;8.50;99.90;;;;;;5114456;28;20265;-53
2021/12/14 04:09:35;;;;;;;28.45;22.08;;;8.40;99.90;;;;;;5114115;28;20074;-53
2021/12/14 04:12:02;;;;;;;34.33;23.20;;;8.50;99.90;;;;;;5114155;27;20048;-52
2021/12/14 04:14:29;;;;;;;29.00;22.05;;;8.50;99.90;;;;;;5114327;28;20035;-49
2021/12/14 04:16:56;;;;;;;30.98;23.52;;;8.50;99.90;;;;;;5114229;28;20535;-50
2021/12/14 04:19:25;;;;;;;31.23;22.42;;;8.50;99.90;;;;;;5114024;27;20040;-53
2021/12/14 04:21:52;;;;;;;29.38;22.58;;;8.50;99.90;;;;;;5113945;28;20047;-52
2021/12/14 04:24:23;;;;;;;30.85;22.98;;;8.50;99.90;;;;;;5113963;28;20114;-49
2021/12/14 04:26:50;;;;;;;30.67;23.13;;;8.50;99.90;;;;;;5114097;28;20047;-51
2021/12/14 04:29:17;;;;;;;32.80;23.33;;;8.50;99.90;;;;;;5113882;28;20442;-52
2021/12/14 04:31:44;;;;;;;30.95;22.48;;;8.50;99.90;;;;;;5113905;28;20040;-53
2021/12/14 04:34:14;;;;;;;27.83;22.83;;;8.50;99.90;;;;;;5113827;27;20035;-52
2021/12/14 04:36:43;;;;;;;30.70;22.23;;;8.50;99.90;;;;;;5114016;28;20055;-52
2021/12/14 04:53:48;;;;;;;38.97;25.63;;;8.50;99.90;;;;;;5011009;28;20359;-48
2021/12/14 04:56:19;;;;;;;35.58;25.40;;;8.40;99.90;;;;;;5010945;28;20049;-50
2021/12/14 04:58:58;;;;;;;41.55;26.45;;;8.40;99.90;;;;;;5010845;28;20050;-52
2021/12/14 05:01:24;;;;;;;36.08;26.15;;;8.40;99.90;;;;;;5010824;28;20053;-50
2021/12/14 05:04:01;;;;;;;38.00;25.60;;;8.40;99.90;;;;;;5010811;28;20050;-50
2021/12/14 05:06:43;;;;;;;40.50;26.95;;;8.40;99.90;;;;;;5010236;28;20038;-52
2021/12/14 05:09:22;;;;;;;36.97;26.85;;;8.40;99.90;;;;;;5010543;28;20053;-53
2021/12/14 05:11:51;;;;;;;35.00;24.95;;;8.40;99.90;;;;;;5010750;28;20057;-49
2021/12/14 05:14:17;;;;;;;36.65;26.27;;;8.40;99.90;;;;;;5010537;28;20050;-48
2021/12/14 05:16:42;;;;;;;39.30;25.67;;;8.30;99.90;;;;;;5010662;28;20042;-52
2021/12/14 05:19:11;;;;;;;38.97;26.75;;;8.40;99.90;;;;;;5010416;28;20421;-50
2021/12/14 05:21:44;;;;;;;35.47;24.88;;;8.40;99.90;;;;;;5038233;28;20212;-51
2021/12/14 05:24:13;;;;;;;38.20;26.30;;;8.30;99.90;;;;;;5050228;28;20502;-52
2021/12/14 05:26:42;;;;;;;39.97;26.75;;;8.40;99.90;;;;;;5050174;28;20048;-51
2021/12/14 05:29:09;;;;;;;37.63;26.40;;;8.30;99.90;;;;;;5050127;28;20045;-49
2021/12/14 05:31:44;;;;;;;38.17;27.45;;;8.30;99.90;;;;;;5112949;28;20150;-49
2021/12/14 05:34:11;;;;;;;39.00;26.50;;;8.30;99.90;;;;;;5112938;28;20043;-50
2021/12/14 05:36:40;;;;;;;40.20;26.90;;;8.30;99.90;;;;;;5112673;28;20393;-51
2021/12/14 05:39:21;;;;;;;45.20;28.95;;;8.30;99.90;;;;;;5112594;28;20481;-50
2021/12/14 05:44:34;;;;;;;39.60;28.88;;;8.30;99.90;;;;;;5112795;28;20050;-49
2021/12/14 05:47:04;;;;;;;42.20;27.73;;;8.30;99.90;;;;;;5113153;28;20051;-50
2021/12/14 05:49:31;;;;;;;39.67;28.83;;;8.30;99.90;;;;;;5112731;28;20039;-50
2021/12/14 05:52:00;;;;;;;41.22;28.83;;;8.30;99.90;;;;;;5112505;28;20032;-53
2021/12/14 05:54:32;;;;;;;39.95;27.67;;;8.30;99.90;;;;;;5112349;28;20039;-51
2021/12/14 05:57:00;;;;;;;39.28;27.90;;;8.30;99.90;;;;;;5112666;28;20047;-50
2021/12/14 05:59:30;;;;;;;40.75;28.25;;;8.30;99.90;;;;;;5112671;28;20032;-51
2021/12/14 06:01:56;;;;;;;43.25;29.48;;;8.30;99.90;;;;;;5111309;28;20042;-52
2021/12/14 06:04:27;;;;;;;42.97;28.77;;;8.30;99.90;;;;;;5112299;28;20115;-53
2021/12/14 06:06:54;;;;;;;43.30;27.30;;;8.30;99.90;;;;;;5112754;28;20035;-48
2021/12/14 06:09:42;;;;;;;40.38;27.92;;;8.30;99.90;;;;;;5112263;28;20112;-50
2021/12/14 06:12:10;;;;;;;41.40;27.20;;;8.30;99.90;;;;;;5112295;28;20503;-52
2021/12/14 06:14:42;;;;;;;36.23;26.67;;;8.30;99.90;;;;;;5112457;28;20050;-52
2021/12/14 06:17:09;;;;;;;39.30;27.85;;;8.30;99.90;;;;;;5114850;28;20083;-51
2021/12/14 06:19:40;;;;;;;44.13;28.20;;;8.40;99.90;;;;;;5116652;28;20039;-52
2021/12/14 06:22:12;;;;;;;41.28;28.38;;;8.40;99.90;;;;;;5116351;28;20481;-53
2021/12/14 06:24:45;;;;;;;39.25;28.63;;;8.40;99.90;;;;;;5116482;28;20031;-52
2021/12/14 06:27:14;;;;;;;42.92;28.70;;;8.40;99.90;;;;;;5116237;28;20031;-52
2021/12/14 06:29:52;;;;;;;44.22;28.90;;;8.40;99.90;;;;;;5116258;28;20043;-49
2021/12/14 06:32:29;;;;;;;42.80;28.90;;;8.40;99.90;;;;;;5116228;28;20044;-51
2021/12/14 06:35:05;;;;;;;42.92;29.80;;;8.40;99.90;;;;;;5116271;28;20114;-51
2021/12/14 06:40:51;;;;;;;37.70;28.50;;;8.30;99.90;;;;;;5116200;28;20045;-51
2021/12/14 06:43:25;;;;;;;44.78;29.08;;;8.40;99.90;;;;;;5116181;28;20041;-51
2021/12/14 06:45:57;;;;;;;42.92;29.90;;;8.40;99.90;;;;;;5116018;28;20031;-51
2021/12/14 06:48:29;;;;;;;44.90;29.73;;;8.40;99.90;;;;;;5116006;28;20039;-50
2021/12/14 06:51:04;;;;;;;39.65;28.75;;;8.40;99.90;;;;;;5115932;28;20391;-51
2021/12/14 06:53:31;;;;;;;46.15;30.63;;;8.40;99.90;;;;;;5115902;28;20048;-49
2021/12/14 06:56:00;;;;;;;48.08;31.00;;;8.40;99.90;;;;;;5115982;27;20035;-50
2021/12/14 06:58:29;;;;;;;45.03;29.93;;;8.40;99.90;;;;;;5115523;28;20054;-51
2021/12/14 07:01:00;;;;;;;;;;;8.40;99.90;;;;;;5116247;28;20044;-50
2021/12/14 07:03:40;;;;;;;46.15;30.10;;;8.40;99.90;;;;;;5115773;28;19939;-51
2021/12/14 07:06:07;;;;;;;47.70;29.92;;;8.40;99.90;;;;;;5098287;28;20763;-53
2021/12/14 07:08:33;;;;;;;45.33;30.65;;;8.40;99.90;;;;;;5115360;28;20063;-51
2021/12/14 07:10:59;;;;;;;47.70;31.35;;;8.40;99.90;;;;;;5115513;28;20035;-50
2021/12/14 07:13:34;;;;;;;45.28;30.45;;;8.40;99.90;;;;;;5115734;28;20123;-53
2021/12/14 07:16:02;;;;;;;49.83;31.75;;;8.40;99.90;;;;;;5115628;28;20044;-51
2021/12/14 07:18:29;;;;;;;50.53;31.60;;;8.40;99.90;;;;;;5115252;28;20031;-50
2021/12/14 07:20:56;;;;;;;45.72;30.95;;;8.40;99.90;;;;;;5115228;27;20035;-51
2021/12/14 07:23:22;;;;;;;53.92;31.80;;;8.40;99.90;;;;;;5115189;28;20404;-51
2021/12/14 07:26:14;;;;;;;48.95;31.98;;;8.40;99.90;;;;;;5115026;28;20090;-53
2021/12/14 07:28:43;;;;;;;46.90;31.55;;;8.40;99.90;;;;;;5114315;28;20047;-50
2021/12/14 07:31:18;;;;;;;50.70;32.53;;;8.40;99.90;;;;;;5115184;28;20051;-51
2021/12/14 07:33:48;;;;;;;49.65;32.50;;;8.40;99.90;;;;;;5115423;28;20039;-50
2021/12/14 07:36:22;;;;;;;51.33;33.60;;;8.40;99.90;;;;;;5115124;28;20082;-52
2021/12/14 07:38:59;;;;;;;49.25;32.55;;;8.40;99.90;;;;;;5114944;28;20047;-51
2021/12/14 07:41:39;;;;;;;57.60;33.42;;;8.40;99.90;;;;;;5114766;28;20493;-52
2021/12/14 07:44:15;;;;;;;57.80;34.20;;;8.40;99.90;;;;;;5114865;28;20039;-52
2021/12/14 07:46:43;;;;;;;59.47;34.38;;;8.40;99.90;;;;;;5114820;28;20458;-53
2021/12/14 07:49:19;;;;;;;54.72;33.92;;;8.40;99.90;;;;;;5113395;28;20052;-53
2021/12/14 07:51:47;;;;;;;50.47;32.45;;;8.30;99.90;;;;;;5114808;28;20070;-50
2021/12/14 07:54:22;;;;;;;59.45;36.03;;;8.40;99.90;;;;;;5113382;28;20047;-49
2021/12/14 07:57:15;;;;;;;51.40;32.58;;;8.40;99.90;;;;;;5114323;28;20031;-50
2021/12/14 08:00:10;;;;;;;57.22;35.15;;;8.40;99.90;;;;;;5110227;28;20052;-48
2021/12/14 08:02:41;;;;;;;63.50;36.28;;;8.40;99.90;;;;;;5114639;28;20428;-51
2021/12/14 08:05:12;;;;;;;57.60;34.28;;;8.40;99.90;;;;;;5114338;28;20047;-49
2021/12/14 08:07:46;;;;;;;60.28;35.72;;;8.40;99.90;;;;;;5114519;28;20093;-52
2021/12/14 08:10:19;;;;;;;62.20;35.95;;;8.40;99.90;;;;;;5114420;28;20047;-53
2021/12/14 08:12:50;;;;;;;61.60;34.25;;;8.40;99.90;;;;;;5113089;28;20051;-52
2021/12/14 08:15:21;;;;;;;62.08;36.67;;;8.40;99.90;;;;;;5114150;28;20123;-53
2021/12/14 08:18:01;;;;;;;62.70;35.63;;;8.40;99.90;;;;;;5114026;28;20035;-51
2021/12/14 08:20:28;;;;;;;63.47;36.90;;;8.40;99.90;;;;;;5113080;28;20078;-49
2021/12/14 08:23:09;;;;;;;58.35;35.13;;;8.40;99.90;;;;;;5113967;28;20039;-47
2021/12/14 08:25:35;;;;;;;63.05;35.47;;;8.50;99.90;;;;;;5113961;28;20035;-53
2021/12/14 08:28:05;;;;;;;62.55;35.28;;;8.50;99.90;;;;;;5114185;28;20092;-53
2021/12/14 08:30:33;;;;;;;65.85;36.13;;;8.50;99.90;;;;;;5113951;28;20086;-50
2021/12/14 08:32:59;;;;;;;61.10;35.45;;;8.40;99.90;;;;;;5113757;28;20031;-49
2021/12/14 08:35:26;;;;;;;60.67;35.38;;;8.50;99.90;;;;;;5113754;28;20130;-52
2021/12/14 08:37:58;;;;;;;58.85;34.75;;;8.50;99.90;;;;;;5113582;28;20481;-53
2021/12/14 08:40:37;;;;;;;62.95;36.00;;;8.50;99.90;;;;;;5113721;28;20039;-50
2021/12/14 08:43:12;;;;;;;61.65;36.45;;;8.50;99.90;;;;;;5114101;28;20139;-51
2021/12/14 08:45:46;;;;;;;66.75;36.97;;;8.50;99.90;;;;;;5113616;28;20043;-49
2021/12/14 08:48:23;;;;;;;60.60;35.70;;;8.50;99.90;;;;;;5113597;28;20048;-52
2021/12/14 08:50:54;;;;;;;61.25;36.72;;;8.50;99.90;;;;;;5113502;28;20040;-51
2021/12/14 08:53:23;;;;;;;56.70;35.10;;;8.50;99.90;;;;;;5113552;28;20072;-50
2021/12/14 08:55:52;;;;;;;61.00;35.80;;;8.50;99.90;;;;;;5113480;28;20036;-53
2021/12/14 08:58:18;;;;;;;59.15;34.88;;;8.60;99.90;;;;;;5113271;28;20040;-47
2021/12/14 09:00:49;;;;;;;58.80;35.08;;;8.60;99.90;;;;;;5113218;28;20043;-53
2021/12/14 09:03:24;;;;;;;63.58;36.15;;;8.60;99.90;;;;;;5113216;28;20032;-50
2021/12/14 09:05:52;;;;;;;61.25;36.35;;;8.60;99.90;;;;;;5113354;28;20157;-52
2021/12/14 09:08:20;;;;;;;60.92;35.33;;;8.60;99.90;;;;;;5113220;28;20051;-52
2021/12/14 09:10:49;;;;;;;60.55;34.50;;;8.60;99.90;;;;;;5113326;28;20044;-51
2021/12/14 09:13:15;;;;;;;;;;;8.60;99.90;;;;;;5113640;28;20047;-51
2021/12/14 09:15:57;;;;;;;60.35;36.00;;;8.60;99.90;;;;;;5113207;28;20361;-53
2021/12/14 09:18:24;;;;;;;58.42;35.10;;;8.60;99.90;;;;;;5113359;28;20090;-51
2021/12/14 09:21:01;;;;;;;65.07;35.42;;;8.60;99.90;;;;;;5113374;28;20088;-50
2021/12/14 09:23:31;;;;;;;65.00;35.95;;;8.60;99.90;;;;;;5113079;28;20106;-52
2021/12/14 09:25:58;;;;;;;62.10;36.50;;;8.70;99.90;;;;;;5112780;28;20046;-52
2021/12/14 09:28:24;;;;;;;61.72;35.67;;;8.70;99.90;;;;;;5113123;28;20036;-53
2021/12/14 09:30:58;;;;;;;58.72;36.33;;;8.70;99.90;;;;;;5112948;28;20067;-51
2021/12/14 09:33:26;;;;;;;60.55;35.10;;;8.70;99.90;;;;;;5112881;28;20048;-51
2021/12/14 09:35:55;;;;;;;66.63;36.25;;;8.70;99.90;;;;;;5112822;28;20089;-52
2021/12/14 09:38:29;;;;;;;60.42;36.58;;;8.70;99.90;;;;;;5113195;28;20146;-51
2021/12/14 09:40:56;;;;;;;60.75;36.00;;;8.70;99.90;;;;;;5112681;28;20054;-52
2021/12/14 09:43:23;;;;;;;60.78;37.45;;;8.70;99.90;;;;;;5112736;28;20397;-52
2021/12/14 09:45:54;;;;;;;61.58;36.83;;;8.80;99.90;;;;;;5112814;28;20067;-51
2021/12/14 09:48:27;;;;;;;63.05;37.00;;;8.80;99.90;;;;;;5112923;28;20130;-52
2021/12/14 09:50:57;;;;;;;58.92;35.22;;;8.80;99.90;;;;;;5112163;28;20525;-52
2021/12/14 09:53:26;;;;;;;52.10;35.53;;;8.80;99.90;;;;;;5112585;28;20039;-53
2021/12/14 09:55:53;;;;;;;;;;;8.90;99.90;;;;;;5113146;28;20043;-49
2021/12/14 09:58:29;;;;;;;58.83;34.58;;;8.80;99.90;;;;;;5112944;28;19930;-53
2021/12/14 10:01:38;;;;;;;58.08;35.58;;;8.80;99.90;;;;;;5112567;28;20062;-53
2021/12/14 10:04:08;;;;;;;62.00;36.08;;;8.80;99.90;;;;;;5069678;28;20135;-50
2021/12/14 10:06:34;;;;;;;62.15;36.25;;;8.80;99.90;;;;;;5069857;28;20044;-52
2021/12/14 10:09:06;;;;;;;54.92;35.08;;;8.80;99.90;;;;;;5069724;28;20110;-52
2021/12/14 10:14:27;;;;;;;62.38;35.67;;;8.80;99.90;;;;;;5069872;28;20059;-52
2021/12/14 10:16:53;;;;;;;61.95;36.55;;;8.80;99.90;;;;;;5069733;28;20115;-51
2021/12/14 10:19:24;;;;;;;63.35;36.40;;;8.80;99.90;;;;;;5069720;28;20637;-51
2021/12/14 10:22:13;;;;;;;63.10;36.17;;;8.80;99.90;;;;;;5069614;28;20076;-52
2021/12/14 10:24:39;;;;;;;66.28;36.13;;;8.80;99.90;;;;;;5069620;28;20044;-53
2021/12/14 10:27:15;;;;;;;59.92;35.50;;;8.80;99.90;;;;;;5069443;28;20044;-53
2021/12/14 10:29:41;;;;;;;66.55;36.45;;;8.80;99.90;;;;;;5069428;28;20074;-53
2021/12/14 10:32:30;;;;;;;65.28;37.38;;;8.80;99.90;;;;;;5069648;28;20530;-51
2021/12/14 10:35:02;;;;;;;60.35;35.00;;;8.80;99.90;;;;;;5069436;28;20080;-51
2021/12/14 10:37:56;;;;;;;62.03;34.25;;;8.80;99.90;;;;;;5069548;28;20052;-50
2021/12/14 10:43:24;;;;;;;58.72;34.03;;;8.80;99.90;;;;;;5112145;28;20040;-52
2021/12/14 10:45:55;;;;;;;62.05;33.90;;;8.80;99.90;;;;;;5112399;28;20035;-51
2021/12/14 10:48:25;;;;;;;64.78;34.08;;;8.80;99.90;;;;;;5112524;28;20155;-51
2021/12/14 10:50:54;;;;;;;60.33;33.33;;;8.80;99.90;;;;;;5112261;28;20069;-50
2021/12/14 10:53:21;;;;;;;62.67;33.45;;;8.90;99.90;;;;;;5112095;28;20116;-52
2021/12/14 10:55:54;;;;;;;79.30;34.95;;;8.80;99.90;;;;;;5112104;28;20048;-51
2021/12/14 10:58:23;;;;;;;50.22;30.98;;;8.90;99.90;;;;;;5111955;28;20044;-50
2021/12/14 11:00:56;;;;;;;53.95;31.50;;;8.90;99.90;;;;;;5111984;28;20388;-51
2021/12/14 11:03:30;;;;;;;52.03;32.50;;;8.90;99.90;;;;;;5113097;28;20044;-53
2021/12/14 11:05:59;;;;;;;60.10;33.25;;;9.00;99.90;;;;;;5114886;28;20039;-52
2021/12/14 11:08:43;;;;;;;;;;;9.00;99.90;;;;;;5115732;28;20496;-51
2021/12/14 11:11:14;;;;;;;54.03;30.65;;;9.00;99.90;;;;;;5115389;28;20365;-51
2021/12/14 11:13:44;;;;;;;53.15;31.95;;;9.00;99.90;;;;;;5115631;28;20044;-53
2021/12/14 11:16:19;;;;;;;51.47;30.77;;;9.00;99.90;;;;;;5115506;28;20050;-50
2021/12/14 11:18:46;;;;;;;58.95;31.55;;;9.00;99.90;;;;;;5115039;27;20489;-52
2021/12/14 11:21:14;;;;;;;55.33;31.60;;;9.00;99.90;;;;;;5115467;28;20092;-52
2021/12/14 11:23:45;;;;;;;50.92;30.10;;;9.00;99.90;;;;;;5115149;28;20114;-51
2021/12/14 11:26:14;;;;;;;56.92;31.42;;;9.10;99.90;;;;;;5115454;28;20091;-52
2021/12/14 11:28:58;;;;;;;53.38;30.58;;;9.10;99.90;;;;;;5115257;28;20126;-51
2021/12/14 11:31:30;;;;;;;54.65;31.15;;;9.10;99.90;;;;;;5115502;28;20043;-51
2021/12/14 11:34:04;;;;;;;50.70;29.42;;;9.10;99.90;;;;;;5115152;28;20039;-50
2021/12/14 11:36:34;;;;;;;54.50;30.58;;;9.00;99.90;;;;;;5115214;28;20041;-51
2021/12/14 11:39:12;;;;;;;54.33;29.67;;;9.10;99.90;;;;;;5114985;28;20048;-51
2021/12/14 11:41:56;;;;;;;51.75;29.80;;;9.10;99.90;;;;;;5114831;28;20085;-51
2021/12/14 11:44:30;;;;;;;52.58;28.05;;;9.10;99.90;;;;;;5114898;28;20488;-53
2021/12/14 11:47:04;;;;;;;50.22;29.70;;;9.10;99.90;;;;;;5115035;28;20035;-52
2021/12/14 11:49:57;;;;;;;50.92;27.33;;;9.10;99.90;;;;;;5114805;28;20043;-51
2021/12/14 11:52:32;;;;;;;50.25;28.90;;;9.10;99.90;;;;;;5113417;28;20351;-52
2021/12/14 11:54:58;;;;;;;47.20;26.92;;;9.10;99.90;;;;;;5114393;28;20505;-50
2021/12/14 11:57:30;;;;;;;48.35;27.42;;;9.10;99.90;;;;;;5114535;28;20031;-53
2021/12/14 12:00:10;;;;;;;47.58;28.25;;;9.10;99.90;;;;;;5114520;28;20107;-51
2021/12/14 12:02:36;;;;;;;56.92;28.35;;;9.10;99.90;;;;;;5112830;28;20566;-52
2021/12/14 12:05:20;;;;;;;50.05;26.08;;;9.10;99.90;;;;;;5114092;28;20111;-50
2021/12/14 12:10:42;;;;;;;47.97;24.27;;;9.10;99.90;;;;;;5114367;28;20413;-53
2021/12/14 12:13:08;;;;;;;45.35;24.88;;;9.10;99.90;;;;;;5114264;28;20059;-53
2021/12/14 12:15:39;;;;;;;48.22;25.85;;;9.10;99.90;;;;;;5113947;28;20381;-52
2021/12/14 12:18:06;;;;;;;41.17;23.27;;;9.10;99.90;;;;;;5114018;28;20036;-53
2021/12/14 12:20:41;;;;;;;45.03;24.80;;;9.10;99.90;;;;;;5114253;28;20512;-53
2021/12/14 12:23:10;;;;;;;42.13;22.27;;;9.10;99.90;;;;;;5114190;28;20067;-52
2021/12/14 12:25:47;;;;;;;39.53;22.63;;;9.10;99.90;;;;;;5114207;28;20401;-53
2021/12/14 12:28:24;;;;;;;43.20;22.70;;;9.20;99.90;;;;;;5114278;28;20126;-53
2021/12/14 12:31:07;;;;;;;43.83;23.02;;;9.20;99.90;;;;;;5114111;28;20126;-50
2021/12/14 12:33:37;;;;;;;44.15;22.27;;;9.20;99.90;;;;;;5113875;28;20047;-51
2021/12/14 12:36:23;;;;;;;39.67;22.15;;;9.20;99.90;;;;;;5112879;28;20043;-53
2021/12/14 12:38:56;;;;;;;37.83;22.25;;;9.20;99.90;;;;;;5113665;27;20039;-51
2021/12/14 12:41:40;;;;;;;40.88;21.13;;;9.20;99.90;;;;;;5113730;28;20041;-52
2021/12/14 12:44:25;;;;;;;38.72;22.20;;;9.20;99.90;;;;;;5113630;28;20516;-49
2021/12/14 12:46:56;;;;;;;40.13;21.02;;;9.20;99.90;;;;;;5113818;28;20047;-53
2021/12/14 12:49:26;;;;;;;42.88;22.42;;;9.20;99.90;;;;;;5113613;28;20047;-53
2021/12/14 12:52:26;;;;;;;39.35;20.80;;;9.20;99.90;;;;;;5113579;28;20473;-51
2021/12/14 12:55:02;;;;;;;45.90;22.33;;;9.30;99.90;;;;;;5113806;28;20123;-51
2021/12/14 12:57:55;;;;;;;41.83;20.65;;;9.20;99.90;;;;;;5113523;28;20512;-50
2021/12/14 13:00:29;;;;;;;38.38;20.23;;;9.30;99.90;;;;;;5113425;28;20046;-52
2021/12/14 13:03:03;;;;;;;39.55;19.33;;;9.30;99.90;;;;;;5113428;28;20036;-53
2021/12/14 13:05:49;;;;;;;36.35;19.40;;;9.30;99.90;;;;;;5113550;28;20035;-53
2021/12/14 13:08:23;;;;;;;42.55;19.83;;;9.30;99.90;;;;;;5113340;28;20062;-50
2021/12/14 13:10:57;;;;;;;38.90;19.75;;;9.30;99.90;;;;;;5113476;28;20050;-52
2021/12/14 13:13:28;;;;;;;33.65;18.58;;;9.30;99.90;;;;;;5113006;28;20489;-52
2021/12/14 13:16:00;;;;;;;33.45;18.17;;;9.30;99.90;;;;;;5113359;28;20473;-52
2021/12/14 13:18:29;;;;;;;29.98;17.25;;;9.30;99.90;;;;;;5112850;28;20485;-53
2021/12/14 13:21:01;;;;;;;33.53;16.98;;;9.40;99.90;;;;;;5112979;28;20485;-53
2021/12/14 13:23:50;;;;;;;33.63;16.70;;;9.40;99.90;;;;;;5112960;28;20044;-51
2021/12/14 13:26:53;;;;;;;30.90;15.48;;;9.40;99.90;;;;;;5112437;28;20039;-51
2021/12/14 13:29:30;;;;;;;34.00;15.68;;;9.40;99.90;;;;;;5070117;28;20135;-52
2021/12/14 13:32:21;;;;;;;27.52;15.60;;;9.40;99.90;;;;;;5069999;28;20552;-51
2021/12/14 13:34:59;;;;;;;27.73;14.98;;;9.40;99.90;;;;;;4990687;28;20054;-49
2021/12/14 13:37:34;;;;;;;24.85;14.02;;;9.40;99.90;;;;;;4990816;28;20528;-53
2021/12/14 13:40:04;;;;;;;25.05;13.75;;;9.40;99.90;;;;;;4990860;28;20133;-50
2021/12/14 13:42:53;;;;;;;24.52;13.93;;;9.50;99.90;;;;;;4990744;28;20054;-51
2021/12/14 13:45:29;;;;;;;32.35;15.75;;;9.40;99.90;;;;;;4990732;28;20054;-52
2021/12/14 13:47:56;;;;;;;26.35;14.60;;;9.40;99.90;;;;;;4990979;28;20054;-50
2021/12/14 13:50:30;;;;;;;28.00;15.52;;;9.50;99.90;;;;;;4990823;28;20455;-53
2021/12/14 13:52:57;;;;;;;30.48;16.02;;;9.40;99.90;;;;;;4990760;28;20054;-52